Time;durP1;ratioP1;P1;durP2;ratioP2;P2;SDS_P1;SDS_P2;PMS_P1;PMS_P2;Temp;Humidity;BMP_temperature;BMP_pressure;BME280_temperature;BME280_humidity;BME280_pressure;Samples;Min_cycle;Max_cycle;Signal;HPM_P1;HPM_P2
2023/04/14 00:00:59;;;;;;;;;;;10.10;90.00;;;10.33;57.18;97897.75;5002111;28;123841;-85
2023/04/14 00:03:25;;;;;;;;;;;10.10;90.00;;;10.36;57.36;97891.56;5016080;27;113683;-86
2023/04/14 00:05:52;;;;;;;;;;;10.10;90.00;;;10.39;57.01;97885.38;5008224;28;113791;-85
2023/04/14 00:08:18;;;;;;;;;;;10.10;90.10;;;10.42;57.12;97873.66;4998070;28;124174;-85
2023/04/14 00:10:48;;;;;;;;;;;10.10;90.10;;;10.45;57.33;97875.78;5020692;28;123127;-85
2023/04/14 00:13:15;;;;;;;;;;;10.10;90.20;;;10.46;57.30;97876.56;5011084;28;113766;-86
2023/04/14 00:15:41;;;;;;;;;;;10.20;90.30;;;10.48;57.33;97874.28;5029060;27;114131;-85
2023/04/14 00:18:07;;;;;;;;;;;10.20;90.40;;;10.50;57.84;97874.75;5000996;28;124318;-87
2023/04/14 00:20:37;;;;;;;;;;;10.20;90.40;;;10.50;57.39;97880.28;4999000;28;123244;-88
2023/04/14 00:23:03;;;;;;;;;;;10.20;90.40;;;10.49;57.51;97879.47;5025690;27;114392;-87
2023/04/14 00:25:29;;;;;;;;;;;10.20;90.40;;;10.51;57.28;97882.72;5000771;28;112677;-86
2023/04/14 00:27:59;;;;;;;;;;;10.20;90.40;;;10.51;57.46;97882.72;5013362;28;123710;-86
2023/04/14 00:30:25;;;;;;;;;;;10.20;90.50;;;10.50;57.46;97886.59;4999290;28;122962;-85
2023/04/14 00:32:52;;;;;;;;;;;10.20;90.60;;;10.46;57.75;97882.09;5009753;28;114708;-87
2023/04/14 00:35:18;;;;;;;;;;;10.20;90.50;;;10.44;57.59;97887.94;5004413;28;114745;-88
2023/04/14 00:37:55;;;;;;;;;;;10.20;90.60;;;10.43;58.02;97891.84;4997899;28;124128;-87
2023/04/14 00:40:38;;;;;;;;;;;10.20;90.60;;;10.45;58.06;97895.09;5003946;28;124551;-87
2023/04/14 00:43:04;;;;;;;;;;;10.20;90.60;;;10.42;58.01;97890.22;4998062;28;114764;-86
2023/04/14 00:45:31;;;;;;;;;;;10.10;90.60;;;10.40;58.09;97898.06;4998925;28;113671;-90
2023/04/14 00:48:02;;;;;;;;;;;10.10;90.60;;;10.38;58.20;97897.56;5007338;28;124320;-87
2023/04/14 00:50:29;;;;;;;;;;;10.10;90.70;;;10.39;58.28;97901.94;5001110;28;124434;-86
2023/04/14 00:52:59;;;;;;;;;;;10.10;90.70;;;10.38;58.42;97900.34;5023139;28;114177;-88
2023/04/14 00:55:26;;;;;;;;;;;10.10;90.70;;;10.38;57.86;97900.34;5006147;28;112854;-84
2023/04/14 00:57:53;;;;;;;;;;;10.10;90.70;;;10.39;58.38;97907.47;4997869;28;124645;-86
2023/04/14 01:00:28;;;;;;;;;;;10.10;90.80;;;10.37;58.43;97909.78;4995852;28;123101;-87
2023/04/14 01:03:05;;;;;;;;;;;10.10;90.80;;;10.36;58.52;97910.88;5008805;28;113597;-86
2023/04/14 01:05:35;;;;;;;;;;;10.10;90.80;;;10.35;58.19;97923.09;5004753;28;112914;-86
2023/04/14 01:08:02;;;;;;;;;;;10.10;90.90;;;10.33;58.57;97920.66;5003735;28;124311;-86
2023/04/14 01:10:39;;;;;;;;;;;10.10;90.90;;;10.32;58.51;97919.03;5012344;28;123966;-86
2023/04/14 01:14:03;;;;;;;;;;;10.10;91.00;;;10.32;58.68;97929.28;4999365;28;114649;-87
2023/04/14 01:16:40;;;;;;;;;;;10.00;90.90;;;10.28;58.55;97925.56;4996708;28;113969;-88
2023/04/14 01:20:08;;;;;;;;;;;10.00;91.00;;;10.23;58.31;97929.28;4982230;28;123526;-86
2023/04/14 01:23:13;;;;;;;;;;;10.00;91.00;;;10.20;58.65;97931.91;4935668;28;123977;-86
2023/04/14 01:26:25;;;;;;;;;;;10.00;90.90;;;10.17;58.75;97927.84;4926360;28;114770;-85
2023/04/14 01:29:38;;;;;;;;;;;10.00;90.90;;;10.15;58.40;97933.72;4849820;29;115283;-87
2023/04/14 01:32:13;;;;;;;;;;;9.90;91.40;;;10.13;58.88;97938.75;4858385;29;123021;-86
2023/04/14 01:34:54;;;;;;;;;;;9.90;91.40;;;10.14;58.44;97942.31;4839811;29;123242;-88
2023/04/14 01:37:32;;;;;;;;;;;9.90;91.40;;;10.11;58.66;97941.03;4841454;29;114084;-86
2023/04/14 01:40:06;;;;;;;;;;;9.90;91.40;;;10.08;58.53;97941.69;4852066;28;112719;-86
2023/04/14 01:42:35;;;;;;;;;;;9.90;91.40;;;10.10;58.88;97944.09;4817128;29;123528;-86
2023/04/14 01:45:26;;;;;;;;;;;9.90;91.40;;;10.08;58.33;97947.19;4853665;28;124396;-88
2023/04/14 01:47:52;;;;;;;;;;;9.80;91.40;;;10.07;58.68;97951.09;4861067;28;113597;-86
2023/04/14 01:50:29;;;;;;;;;;;9.90;91.40;;;10.06;58.56;97946.72;4861884;28;113871;-87
2023/04/14 01:53:02;;;;;;;;;;;9.80;91.40;;;10.04;58.18;97950.94;4876339;28;124476;-86
2023/04/14 01:55:29;;;;;;;;;;;9.80;91.30;;;10.05;58.11;97958.91;4875714;28;122087;-87
2023/04/14 01:58:00;;;;;;;;;;;9.80;91.30;;;10.03;58.52;97960.38;4879646;28;114815;-88
2023/04/14 02:00:26;;;;;;;;;;;9.80;91.30;;;9.96;58.16;97955.34;4880494;28;113228;-87
2023/04/14 02:02:53;;;;;;;;;;;9.70;91.20;;;9.91;58.30;97961.88;4885661;28;123580;-87
2023/04/14 02:06:00;;;;;;;;;;;9.70;91.30;;;9.88;58.78;97958.94;4938484;28;123339;-86
2023/04/14 02:08:38;;;;;;;;;;;10.30;91.10;;;9.84;58.63;97967.06;5028084;28;113531;-86
2023/04/14 02:11:28;;;;;;;;;;;9.60;91.40;;;9.77;58.86;97966.75;5021328;28;114046;-86
2023/04/14 02:14:01;;;;;;;;;;;9.50;91.40;;;9.77;58.94;97966.75;5025006;28;124017;-86
2023/04/14 02:16:38;;;;;;;;;;;9.50;91.40;;;9.77;58.80;97960.44;5015545;28;123401;-85
2023/04/14 02:19:16;;;;;;;;;;;9.00;91.20;;;9.76;58.77;97970.66;5009828;28;115620;-85
2023/04/14 02:22:35;;;;;;;;;;;9.50;91.40;;;9.74;58.45;97964.66;4956872;28;114893;-85
2023/04/14 02:29:26;;;;;;;;;;;9.50;91.40;;;9.68;58.86;97961.25;4973728;28;124245;-85
2023/04/14 02:32:48;;;;;;;;;;;9.50;91.40;;;9.65;58.86;97966.63;4969381;28;115302;-85
2023/04/14 02:39:38;;;;;;;;;;;9.40;91.40;;;9.59;58.99;97966.00;4973221;28;125189;-85
2023/04/14 02:43:00;;;;;;;;;;;9.40;91.40;;;9.57;59.03;97959.19;4910699;28;123894;-84
2023/04/14 02:46:23;;;;;;;;;;;9.40;91.50;;;9.56;58.86;97958.34;4912354;28;115309;-86
2023/04/14 02:49:55;;;;;;;;;;;9.30;91.50;;;9.53;59.19;97967.28;4915816;28;114717;-86
2023/04/14 02:53:20;;;;;;;;;;;7.90;91.00;;;9.50;59.17;97965.16;4901707;28;125021;-85
2023/04/14 02:56:08;;;;;;;;;;;9.20;91.50;;;9.47;59.17;97965.84;4925068;28;123811;-84
2023/04/14 03:16:42;;;;;;;;;;;8.60;91.60;;;9.35;59.40;97966.50;5013986;28;114754;-85
2023/04/14 03:19:54;;;;;;;;;;;7.70;91.20;;;9.33;59.43;97965.19;5000937;28;124816;-85
2023/04/14 03:22:30;;;;;;;;;;;9.10;91.80;;;9.33;59.48;97960.50;4982936;28;123740;-86
2023/04/14 03:31:35;;;;;;;;;;;9.10;91.70;;;9.31;59.32;97967.47;5002617;28;125268;-86
2023/04/14 03:34:18;;;;;;;;;;;9.10;91.70;;;9.28;59.09;97969.72;4996929;28;122406;-87
2023/04/14 03:36:59;;;;;;;;;;;9.10;91.70;;;9.27;59.08;97973.63;5022756;28;113621;-86
2023/04/14 03:39:46;;;;;;;;;;;9.10;91.70;;;9.25;59.11;97964.88;5011409;28;114819;-85
2023/04/14 03:45:33;;;;;;;;;;;8.90;91.60;;;9.24;59.21;97963.25;5014193;28;124547;-85
2023/04/14 03:48:06;;;;;;;;;;;9.00;91.60;;;9.22;59.09;97957.25;5031601;28;114205;-86
2023/04/14 03:50:53;;;;;;;;;;;8.90;91.50;;;9.20;59.00;97959.50;5028647;28;112354;-86
2023/04/14 03:53:40;;;;;;;;;;;9.00;91.60;;;9.20;59.18;97950.44;5025875;28;124257;-83
2023/04/14 03:56:16;;;;;;;;;;;9.00;91.50;;;9.15;58.80;97948.66;5029515;28;123497;-84
2023/04/14 03:59:16;;;;;;;;;;;9.00;91.60;;;9.17;58.82;97953.84;5012099;28;114057;-84
2023/04/14 04:04:57;;;;;;;;;;;7.80;91.10;;;9.12;59.04;97954.81;5021045;28;125212;-86
2023/04/14 04:07:33;;;;;;;;;;;8.90;91.60;;;9.07;59.14;97957.72;4989462;28;124090;-88
2023/04/14 04:10:03;;;;;;;;;;;8.80;91.50;;;9.09;58.86;97968.44;5006204;28;114315;-84
2023/04/14 04:16:37;;;;;;;;;;;9.80;91.90;;;9.02;59.03;97974.41;5038957;28;125099;-85
2023/04/14 04:19:34;;;;;;;;;;;7.80;91.00;;;8.97;58.72;97969.06;5036025;28;124059;-85
2023/04/14 04:25:51;;;;;;;;;;;8.80;91.40;;;8.94;58.89;97970.50;4955230;28;115276;-86
2023/04/14 04:28:40;;;;;;;;;;;8.80;91.40;;;8.93;59.06;97968.91;4934266;28;125545;-87
2023/04/14 04:31:11;;;;;;;;;;;8.70;91.40;;;8.91;58.89;97962.88;4921702;28;122987;-86
2023/04/14 04:34:18;;;;;;;;;;;8.70;91.40;;;8.91;58.80;97962.88;4937017;28;114713;-86
2023/04/14 04:37:32;;;;;;;;;;;8.70;91.40;;;8.84;59.06;97962.56;4936958;28;114694;-85
2023/04/14 04:40:06;;;;;;;;;;;8.70;91.50;;;8.77;59.32;97963.03;4873198;29;123349;-84
2023/04/14 04:42:50;;;;;;;;;;;8.50;91.50;;;8.75;59.24;97968.03;4862023;29;124065;-85
2023/04/14 04:45:48;;;;;;;;;;;8.50;91.50;;;8.73;59.22;97975.84;4874004;29;113939;-86
2023/04/14 04:48:15;;;;;;;;;;;8.60;91.60;;;8.71;59.38;97969.84;4854034;29;114566;-86
2023/04/14 04:50:51;;;;;;;;;;;8.50;91.60;;;8.68;59.40;97972.41;4835111;29;125258;-86
2023/04/14 04:53:20;;;;;;;;;;;8.50;91.60;;;8.63;59.36;97982.44;4855161;29;123760;-87
2023/04/14 04:56:05;;;;;;;;;;;8.30;91.50;;;8.62;59.73;97985.50;4886878;28;113766;-85
2023/04/14 04:58:53;;;;;;;;;;;8.40;91.60;;;8.62;59.58;97991.84;4894886;28;114065;-86
2023/04/14 05:01:20;;;;;;;;;;;8.40;91.60;;;8.61;59.56;97983.91;4906071;28;122704;-85
2023/04/14 05:03:55;;;;;;;;;;;8.40;91.60;;;8.66;59.44;97981.00;4901885;28;121683;-87
2023/04/14 05:06:32;;;;;;;;;;;8.50;91.70;;;8.66;59.29;97981.00;4904656;28;114561;-86
2023/04/14 05:09:01;;;;;;;;;;;8.40;91.60;;;8.67;59.27;97987.31;4915754;28;113470;-87
2023/04/14 05:11:40;;;;;;;;;;;8.40;91.60;;;8.68;59.17;97995.25;4952239;28;122817;-86
2023/04/14 05:14:08;;;;;;;;;;;8.40;91.60;;;8.68;59.39;98000.78;4935239;28;123209;-86
2023/04/14 05:16:35;;;;;;;;;;;8.50;91.70;;;8.68;59.48;98006.28;4946462;28;113189;-88
2023/04/14 05:19:15;;;;;;;;;;;8.40;91.70;;;8.70;59.89;97995.72;4979310;28;113736;-87
2023/04/14 05:21:49;;;;;;;;;;;8.50;91.90;;;8.75;59.40;97992.03;4981193;28;124303;-88
2023/04/14 05:24:17;;;;;;;;;;;8.10;91.90;;;8.77;59.78;97987.00;4969406;28;122841;-87
2023/04/14 05:26:44;;;;;;;;;;;8.50;92.00;;;8.80;59.80;97997.38;4980133;28;113628;-87
2023/04/14 05:29:10;;;;;;;;;;;8.50;91.90;;;8.83;59.44;97989.28;4951436;28;113521;-88
2023/04/14 05:31:36;;;;;;;;;;;8.50;92.00;;;8.87;59.40;97991.41;4968650;28;123536;-86
2023/04/14 05:34:04;;;;;;;;;;;8.60;92.00;;;8.89;59.68;97995.44;4999008;28;122330;-85
2023/04/14 05:36:33;;;;;;;;;;;8.60;92.00;;;8.91;59.16;97997.91;5022596;28;114055;-87
2023/04/14 05:39:00;;;;;;;;;;;8.60;92.00;;;8.93;59.63;98001.16;5018249;28;113461;-86
2023/04/14 05:41:26;;;;;;;;;;;9.00;92.10;;;8.94;59.54;98003.56;5016406;28;122368;-89
2023/04/14 05:43:52;;;;;;;;;;;8.60;91.90;;;8.98;59.41;98009.25;5008622;28;122347;-86
2023/04/14 05:46:18;;;;;;;;;;;8.70;91.90;;;9.00;59.25;98018.00;5016080;28;112568;-86
2023/04/14 05:48:47;;;;;;;;;;;8.70;92.00;;;8.98;59.64;98012.03;5002869;28;114090;-88
2023/04/14 05:51:13;;;;;;;;;;;8.60;92.10;;;8.92;59.87;98016.03;5020745;28;123778;-86
2023/04/14 05:53:42;;;;;;;;;;;8.60;92.30;;;8.91;60.10;98019.94;5040177;27;124631;-88
2023/04/14 05:56:10;;;;;;;;;;;8.60;92.40;;;8.90;60.30;98034.84;5039614;28;114077;-87
2023/04/14 05:58:46;;;;;;;;;;;8.60;92.40;;;8.88;60.25;98032.41;5037948;28;113166;-83
2023/04/14 06:01:12;;;;;;;;;;;8.50;92.50;;;8.87;60.25;98030.00;5036746;28;124047;-86
2023/04/14 06:03:40;;;;;;;;;;;8.40;92.40;;;8.93;60.34;98031.44;5030884;28;123454;-87
2023/04/14 06:06:08;;;;;;;;;;;8.60;92.60;;;8.96;60.03;98028.84;5024419;27;116422;-86
2023/04/14 06:08:34;;;;;;;;;;;8.60;92.50;;;8.97;60.41;98032.41;5016232;28;114094;-86
2023/04/14 06:11:01;;;;;;;;;;;8.60;92.60;;;8.96;60.12;98047.34;4999173;28;122794;-86
2023/04/14 06:13:28;;;;;;;;;;;8.60;92.60;;;8.97;60.25;98046.19;5050300;27;123521;-86
2023/04/14 06:15:59;;;;;;;;;;;8.60;92.60;;;8.98;60.51;98042.31;5030353;28;113284;-87
2023/04/14 06:18:25;;;;;;;;;;;8.60;92.60;;;9.01;60.07;98036.97;4999401;28;113563;-87
2023/04/14 06:20:52;;;;;;;;;;;8.70;92.60;;;9.08;60.17;98033.75;5031551;28;124010;-85
2023/04/14 06:23:20;;;;;;;;;;;8.70;92.50;;;9.15;59.70;98034.06;5005551;28;124132;-88
2023/04/14 06:25:46;;;;;;;;;;;8.80;92.50;;;9.23;59.40;98040.75;5009892;28;112872;-86
2023/04/14 06:28:13;;;;;;;;;;;8.80;92.40;;;9.25;59.55;98042.03;4993878;28;114439;-86
2023/04/14 06:30:39;;;;;;;;;;;8.90;92.30;;;9.30;59.05;98035.56;4993882;28;123585;-87
2023/04/14 06:33:06;;;;;;;;;;;8.80;92.20;;;9.39;59.45;98032.81;4991471;28;124651;-89
2023/04/14 06:35:35;;;;;;;;;;;9.00;92.30;;;9.44;58.76;98032.66;5002358;28;113686;-90
2023/04/14 06:38:01;;;;;;;;;;;9.00;92.00;;;9.48;58.58;98034.44;5001742;28;112819;-89
2023/04/14 06:40:30;;;;;;;;;;;9.00;91.90;;;9.51;58.13;98033.00;5010139;28;124401;-89
2023/04/14 06:42:56;;;;;;;;;;;9.00;91.80;;;9.51;57.82;98033.81;5036080;27;123793;-90
2023/04/14 06:45:22;;;;;;;;;;;9.00;91.80;;;9.55;57.99;98030.38;5044732;27;114198;-88
2023/04/14 06:47:49;;;;;;;;;;;9.00;91.70;;;9.56;57.97;98016.25;5009655;28;113847;-89
2023/04/14 06:50:15;;;;;;;;;;;9.10;91.70;;;9.64;57.58;98029.22;5011570;28;125261;-87
2023/04/14 06:52:41;;;;;;;;;;;9.10;91.50;;;9.64;57.16;98023.72;5008621;28;124500;-87
2023/04/14 06:55:08;;;;;;;;;;;9.10;91.40;;;9.68;56.98;98019.19;4994857;28;114722;-87
2023/04/14 06:57:34;;;;;;;;;;;9.10;91.20;;;9.71;57.04;98023.25;5010090;28;114671;-86
2023/04/14 07:00:01;;;;;;;;;;;9.20;91.30;;;9.80;56.95;98023.22;4997270;28;124029;-87
2023/04/14 07:02:27;;;;;;;;;;;9.20;91.20;;;9.82;56.65;98016.25;5006110;28;124168;-87
2023/04/14 07:04:53;;;;;;;;;;;9.90;91.40;;;9.82;56.50;98012.69;5007128;28;114673;-89
2023/04/14 07:07:20;;;;;;;;;;;9.20;91.00;;;9.84;56.58;98010.41;5005189;28;112849;-89
2023/04/14 07:09:46;;;;;;;;;;;9.20;91.00;;;9.91;56.39;98005.19;5015330;28;123974;-88
2023/04/14 07:12:14;;;;;;;;;;;9.40;91.00;;;9.99;56.09;98009.88;5015149;28;124185;-89
2023/04/14 07:14:40;;;;;;;;;;;11.00;91.10;;;10.07;56.17;98006.28;5029481;28;113851;-88
2023/04/14 07:17:07;;;;;;;;;;;9.50;90.80;;;10.14;55.67;97995.56;5002472;28;113819;-86
2023/04/14 07:19:33;;;;;;;;;;;9.60;90.60;;;10.21;55.31;97994.22;5034497;27;123833;-86
2023/04/14 07:22:02;;;;;;;;;;;10.50;90.50;;;10.28;55.02;97992.63;5008918;28;123852;-87
2023/04/14 07:24:28;;;;;;;;;;;9.60;90.30;;;10.35;55.45;97992.91;5000673;28;114593;-85
2023/04/14 07:26:54;;;;;;;;;;;9.70;90.40;;;10.49;55.47;97980.84;5004206;28;113921;-86
2023/04/14 07:29:21;;;;;;;;;;;9.90;90.50;;;10.63;55.02;97988.91;4997551;28;124347;-85
2023/04/14 07:31:47;;;;;;;;;;;10.00;89.70;;;10.74;54.60;97985.41;5022763;28;124254;-88
2023/04/14 07:34:13;;;;;;;;;;;10.10;89.80;;;10.87;54.43;97988.28;5005843;28;114331;-89
2023/04/14 07:36:39;;;;;;;;;;;10.20;90.00;;;10.97;53.99;97985.94;5007799;28;113618;-90
2023/04/14 07:39:06;;;;;;;;;;;10.30;89.30;;;11.09;53.94;97981.63;5015162;28;125131;-88
2023/04/14 07:41:32;;;;;;;;;;;10.40;89.30;;;11.21;53.88;97990.00;5026229;28;122910;-88
2023/04/14 07:43:58;;;;;;;;;;;10.50;88.90;;;11.29;52.49;97980.84;5003684;28;117350;-90
2023/04/14 07:46:25;;;;;;;;;;;10.60;87.80;;;11.35;52.94;97982.25;5014868;28;114574;-89
2023/04/14 07:48:53;;;;;;;;;;;10.70;88.10;;;11.43;52.99;97984.13;4992157;28;124135;-88
2023/04/14 07:51:20;;;;;;;;;;;10.80;87.80;;;11.47;52.01;97990.63;5007719;28;123901;-88
2023/04/14 07:53:46;;;;;;;;;;;10.90;86.50;;;11.53;52.49;97988.47;5010201;28;114502;-90
2023/04/14 07:56:13;;;;;;;;;;;10.90;86.70;;;11.61;52.27;97986.75;5043112;27;113926;-90
2023/04/14 07:58:40;;;;;;;;;;;10.90;86.20;;;11.64;51.54;97986.09;5042422;27;124003;-89
2023/04/14 08:01:06;;;;;;;;;;;11.00;86.20;;;11.66;51.11;97979.06;5013007;28;122902;-89
2023/04/14 08:03:32;;;;;;;;;;;11.00;85.40;;;11.68;51.18;97984.25;5019663;28;113522;-86
2023/04/14 08:05:59;;;;;;;;;;;11.00;85.50;;;11.70;51.27;97988.28;5002650;28;113917;-85
2023/04/14 08:08:27;;;;;;;;;;;11.10;85.50;;;11.79;51.42;97996.50;5010954;28;124000;-85
2023/04/14 08:10:53;;;;;;;;;;;11.20;85.60;;;11.86;51.00;97991.25;4998039;28;123252;-85
2023/04/14 08:13:21;;;;;;;;;;;11.20;84.80;;;11.91;50.32;97993.81;5027702;27;114439;-87
2023/04/14 08:15:48;;;;;;;;;;;11.30;84.40;;;11.96;50.56;97990.03;4998446;28;113370;-86
2023/04/14 08:18:14;;;;;;;;;;;11.30;84.40;;;12.01;50.80;98000.06;4992630;28;125156;-85
2023/04/14 08:20:40;;;;;;;;;;;11.40;84.50;;;12.08;50.38;97998.38;5031294;27;123930;-88
2023/04/14 08:23:07;;;;;;;;;;;11.50;84.90;;;12.16;50.33;97980.03;4997254;28;114187;-88
2023/04/14 08:25:33;;;;;;;;;;;11.60;84.10;;;12.17;48.06;97984.44;4997806;28;113622;-86
2023/04/14 08:28:00;;;;;;;;;;;12.40;81.20;;;12.22;47.70;97981.44;5007596;28;123145;-86
2023/04/14 08:30:26;;;;;;;;;;;11.80;80.90;;;12.32;47.28;97982.94;5002600;28;124218;-87
2023/04/14 08:32:52;;;;;;;;;;;11.80;79.50;;;12.35;47.12;97977.53;5009734;28;114234;-86
2023/04/14 08:35:22;;;;;;;;;;;11.90;79.30;;;12.38;47.13;97985.16;5008507;28;114692;-86
2023/04/14 08:37:48;;;;;;;;;;;11.90;79.00;;;12.46;47.72;97990.94;5005103;28;124193;-86
2023/04/14 08:40:17;;;;;;;;;;;12.00;80.00;;;12.53;48.11;97985.63;5042632;27;124052;-87
2023/04/14 08:42:44;;;;;;;;;;;12.00;80.50;;;12.61;48.07;97976.41;5011148;28;114071;-85
2023/04/14 08:45:11;;;;;;;;;;;12.10;80.90;;;12.71;47.72;97980.69;5036767;27;114009;-85
2023/04/14 08:47:39;;;;;;;;;;;12.20;80.40;;;12.76;47.10;97969.34;5034977;27;124782;-83
2023/04/14 08:50:15;;;;;;;;;;;12.20;80.50;;;12.83;47.20;97975.94;5024245;28;123348;-85
2023/04/14 08:52:42;;;;;;;;;;;12.30;79.60;;;12.87;46.03;97967.75;5008660;28;114987;-84
2023/04/14 08:55:09;;;;;;;;;;;12.30;77.80;;;12.85;46.11;97980.34;5034328;27;113786;-84
2023/04/14 08:57:40;;;;;;;;;;;12.30;77.80;;;12.87;46.02;97976.06;5001286;28;124697;-83
2023/04/14 09:00:07;;;;;;;;;;;12.40;77.70;;;12.84;45.07;97971.19;5008106;28;122214;-85
2023/04/14 09:02:38;;;;;;;;;;;12.40;76.00;;;12.87;45.54;97978.81;5001773;28;114499;-85
2023/04/14 09:05:05;;;;;;;;;;;12.40;76.50;;;12.90;45.38;97966.25;5023814;28;113390;-86
2023/04/14 09:07:32;;;;;;;;;;;12.50;76.40;;;12.86;44.34;97965.31;5025487;27;124315;-85
2023/04/14 09:09:59;;;;;;;;;;;12.50;74.90;;;12.82;44.57;97971.53;5003286;28;126456;-86
2023/04/14 09:12:26;;;;;;;;;;;12.50;74.70;;;12.85;44.16;97972.00;5004878;28;114137;-87
2023/04/14 09:14:54;;;;;;;;;;;12.50;74.00;;;12.90;44.77;97971.78;5004012;28;113734;-86
2023/04/14 09:17:20;;;;;;;;;;;12.50;74.70;;;12.94;44.77;97975.47;5030574;27;124290;-84
2023/04/14 09:19:47;;;;;;;;;;;12.60;74.70;;;13.00;44.55;97977.66;5000520;28;123893;-84
2023/04/14 09:22:13;;;;;;;;;;;12.70;75.00;;;13.07;44.66;97967.94;5000302;28;115497;-85
2023/04/14 09:24:39;;;;;;;;;;;12.70;75.20;;;13.11;44.29;97964.13;4996057;28;114066;-85
2023/04/14 09:27:09;;;;;;;;;;;12.80;74.20;;;13.09;44.06;97963.66;5005415;28;124173;-85
2023/04/14 09:29:36;;;;;;;;;;;12.70;74.00;;;13.07;44.24;97967.94;4991264;28;124027;-85
2023/04/14 09:32:04;;;;;;;;;;;12.70;74.00;;;13.09;43.68;97971.97;5019378;27;114995;-86
2023/04/14 09:34:31;;;;;;;;;;;12.80;73.20;;;13.03;43.07;97957.56;4982905;28;113501;-86
2023/04/14 09:37:02;;;;;;;;;;;12.70;72.10;;;13.01;42.83;97970.16;5012861;27;123238;-87
2023/04/14 09:39:28;;;;;;;;;;;12.70;71.70;;;13.05;43.14;97959.94;4992560;28;124021;-85
2023/04/14 09:41:54;;;;;;;;;;;12.70;72.10;;;13.11;43.25;97963.28;5030097;27;114503;-85
2023/04/14 09:44:24;;;;;;;;;;;12.80;72.20;;;13.18;42.36;97967.09;4998371;28;113674;-84
2023/04/14 09:47:01;;;;;;;;;;;12.80;70.90;;;13.20;41.82;97964.78;4994952;28;124351;-86
2023/04/14 09:49:28;;;;;;;;;;;12.80;69.90;;;13.20;41.59;97969.53;5008934;27;123861;-86
2023/04/14 09:52:01;;;;;;;;;;;12.90;70.00;;;13.24;42.01;97960.16;5004113;28;114706;-86
2023/04/14 09:54:30;;;;;;;;;;;12.90;70.40;;;13.26;41.62;97966.19;4992986;28;114898;-85
2023/04/14 09:57:00;;;;;;;;;;;12.90;69.80;;;13.22;39.88;97962.47;4997815;28;124181;-87
2023/04/14 09:59:39;;;;;;;;;;;12.90;67.20;;;13.21;39.68;97960.03;5006998;28;123201;-86
2023/04/14 10:02:07;;;;;;;;;;;12.90;66.20;;;13.21;40.02;97955.28;5002289;28;114784;-86
2023/04/14 10:04:35;;;;;;;;;;;12.90;67.10;;;13.28;40.15;97953.94;5002731;28;113144;-83
2023/04/14 10:07:06;;;;;;;;;;;12.90;67.30;;;13.30;39.64;97951.59;4995732;28;124760;-84
2023/04/14 10:09:41;;;;;;;;;;;12.90;65.70;;;13.35;40.16;97954.13;5018258;27;124077;-84
2023/04/14 10:12:18;;;;;;;;;;;13.00;66.80;;;13.39;40.56;97955.06;4998067;28;115381;-86
2023/04/14 10:14:44;;;;;;;;;;;13.00;66.90;;;13.43;40.44;97944.84;4999080;28;115104;-85
2023/04/14 10:17:18;;;;;;;;;;;13.00;66.90;;;13.43;40.09;97934.59;4992513;28;124083;-86
2023/04/14 10:19:45;;;;;;;;;;;13.10;66.50;;;13.49;40.40;97937.91;4992122;28;124127;-84
2023/04/14 10:22:15;;;;;;;;;;;13.10;67.40;;;13.58;40.39;97926.66;4991989;28;115052;-84
2023/04/14 10:24:42;;;;;;;;;;;13.20;67.60;;;13.64;39.60;97923.25;5006866;27;113838;-86
2023/04/14 10:27:08;;;;;;;;;;;13.20;66.40;;;13.62;39.05;97919.22;4993090;28;124389;-86
2023/04/14 10:29:41;;;;;;;;;;;13.20;65.00;;;13.63;38.51;97927.22;5022363;27;123139;-85
2023/04/14 10:32:08;;;;;;;;;;;13.20;64.10;;;13.66;39.06;97920.94;5023822;28;114575;-85
2023/04/14 10:34:39;;;;;;;;;;;13.30;65.30;;;13.73;39.39;97917.56;4980136;28;114367;-84
2023/04/14 10:37:14;;;;;;;;;;;13.30;65.40;;;13.78;38.57;97916.47;4990346;28;123226;-83
2023/04/14 10:39:41;;;;;;;;;;;13.40;64.30;;;13.85;38.98;97916.69;4987052;28;124525;-85
2023/04/14 10:42:08;;;;;;;;;;;13.50;65.10;;;13.92;38.42;97897.44;4988976;28;114660;-84
2023/04/14 10:44:38;;;;;;;;;;;13.50;64.40;;;14.00;37.81;97901.22;4980585;28;113274;-84
2023/04/14 10:47:06;;;;;;;;;;;13.60;63.60;;;14.05;37.95;97901.75;4990996;28;124301;-83
2023/04/14 10:49:39;;;;;;;;;;;13.60;63.10;;;14.10;38.08;97890.38;5006053;28;123780;-84
2023/04/14 10:52:15;;;;;;;;;;;13.70;63.60;;;14.18;37.87;97887.75;5004792;28;114487;-84
2023/04/14 10:54:59;;;;;;;;;;;13.80;63.30;;;14.27;38.47;97886.44;5006151;28;114448;-85
2023/04/14 10:57:27;;;;;;;;;;;13.90;64.10;;;14.36;38.40;97873.16;5004746;28;123666;-84
2023/04/14 11:00:19;;;;;;;;;;;13.90;64.40;;;14.49;38.85;97878.59;5004183;28;123852;-87
2023/04/14 11:02:54;;;;;;;;;;;14.00;65.00;;;14.61;38.41;97889.63;4994428;28;115753;-85
2023/04/14 11:05:20;;;;;;;;;;;14.10;65.00;;;14.68;37.52;97870.34;5025779;27;114604;-82
2023/04/14 11:07:57;;;;;;;;;;;14.20;63.20;;;14.73;36.43;97872.03;5013798;28;123625;-84
2023/04/14 11:10:29;;;;;;;;;;;14.30;61.30;;;14.76;36.37;97863.78;5010777;27;123714;-82
2023/04/14 11:13:06;;;;;;;;;;;14.30;61.10;;;14.77;35.55;97856.22;5022955;27;113895;-83
2023/04/14 11:16:00;;;;;;;;;;;14.30;59.50;;;14.83;36.07;97857.59;4990450;28;114053;-83
2023/04/14 11:18:26;;;;;;;;;;;14.40;60.10;;;14.89;36.38;97841.41;4991689;28;124048;-82
2023/04/14 11:20:53;;;;;;;;;;;14.50;60.30;;;14.99;36.78;97858.31;4990854;28;123775;-81
2023/04/14 11:23:28;;;;;;;;;;;14.60;61.30;;;15.15;35.90;97858.25;4995238;28;114249;-82
2023/04/14 11:25:56;;;;;;;;;;;14.70;60.70;;;15.24;35.60;97855.25;5001521;28;113832;-82
2023/04/14 11:28:40;;;;;;;;;;;14.80;59.70;;;15.34;35.81;97857.47;4998316;28;126456;-84
2023/04/14 11:31:07;;;;;;;;;;;14.80;60.30;;;15.36;35.40;97846.75;5003514;28;123017;-85
2023/04/14 11:33:38;;;;;;;;;;;14.90;59.10;;;15.43;35.44;97846.88;5016169;27;114681;-83
2023/04/14 11:36:06;;;;;;;;;;;15.00;59.80;;;15.45;34.96;97840.97;5020361;27;113650;-84
2023/04/14 11:38:39;;;;;;;;;;;15.00;58.70;;;15.45;35.46;97841.75;4988578;28;124181;-82
2023/04/14 11:41:14;;;;;;;;;;;15.00;59.10;;;15.53;35.11;97841.88;5016547;27;123044;-82
2023/04/14 11:43:45;;;;;;;;;;;15.10;58.90;;;15.62;34.99;97845.25;5019783;27;113785;-84
2023/04/14 11:46:19;;;;;;;;;;;15.20;58.40;;;15.74;34.81;97842.31;5023159;27;113064;-84
2023/04/14 11:48:55;;;;;;;;;;;15.20;58.30;;;15.85;34.13;97843.31;4993582;28;123316;-83
2023/04/14 11:51:32;;;;;;;;;;;15.30;57.30;;;15.90;34.06;97839.41;5014395;27;124672;-84
2023/04/14 11:54:00;;;;;;;;;;;15.40;57.80;;;15.98;33.33;97826.41;5004041;28;116899;-84
2023/04/14 11:56:27;;;;;;;;;;;15.50;56.30;;;16.06;32.74;97826.16;4990088;28;114660;-83
2023/04/14 11:59:03;;;;;;;;;;;15.50;55.30;;;16.05;32.70;97820.97;5019523;27;124208;-84
2023/04/14 12:01:37;;;;;;;;;;;15.50;54.70;;;16.01;32.46;97839.59;5034333;27;124200;-86
2023/04/14 12:04:05;;;;;;;;;;;15.50;54.30;;;15.96;32.95;97820.41;5001511;28;114833;-83
2023/04/14 12:06:37;;;;;;;;;;;15.50;54.80;;;15.95;32.63;97824.38;5030441;27;113893;-83
2023/04/14 12:09:07;;;;;;;;;;;15.60;54.60;;;15.93;33.15;97823.94;5026119;27;123481;-84
2023/04/14 12:11:37;;;;;;;;;;;15.50;54.40;;;15.89;33.04;97815.53;5004042;28;124249;-84
2023/04/14 12:14:03;;;;;;;;;;;15.60;54.60;;;15.92;32.90;97813.97;4992314;28;114770;-81
2023/04/14 12:16:30;;;;;;;;;;;15.60;54.30;;;15.99;32.97;97809.34;5032708;27;113856;-84
2023/04/14 12:19:00;;;;;;;;;;;15.60;54.40;;;16.10;32.65;97806.72;4999518;28;124679;-85
2023/04/14 12:21:26;;;;;;;;;;;15.70;54.30;;;16.17;32.34;97797.66;5000497;28;123923;-83
2023/04/14 12:23:53;;;;;;;;;;;15.70;53.80;;;16.29;32.46;97789.09;5003924;28;113823;-83
2023/04/14 12:26:27;;;;;;;;;;;15.80;54.10;;;16.43;31.69;97783.72;5026297;27;112228;-82
2023/04/14 12:29:05;;;;;;;;;;;15.90;52.50;;;16.59;31.54;97780.75;5021387;27;123633;-81